createdAt,value
2019-05-09T00:02:13.886Z,10.10
2019-05-09T00:04:44.057Z,10.10
2019-05-09T00:07:14.000Z,10.10
2019-05-09T00:09:44.099Z,10.00
2019-05-09T00:12:14.015Z,9.80
2019-05-09T00:14:43.360Z,9.80
2019-05-09T00:17:13.823Z,9.80
2019-05-09T00:19:43.719Z,9.70
2019-05-09T00:22:13.724Z,9.70
2019-05-09T00:24:41.710Z,9.70
2019-05-09T00:27:09.923Z,9.50
2019-05-09T00:29:39.821Z,9.50
2019-05-09T00:32:13.718Z,9.40
2019-05-09T00:34:53.236Z,9.30
2019-05-09T00:37:23.858Z,9.20
2019-05-09T00:39:53.336Z,9.20
2019-05-09T00:42:23.979Z,9.00
2019-05-09T00:44:53.361Z,9.10
2019-05-09T00:47:23.966Z,9.00
2019-05-09T00:49:54.181Z,8.90
2019-05-09T00:52:23.504Z,8.90
2019-05-09T00:54:53.126Z,8.80
2019-05-09T00:57:33.568Z,8.90
2019-05-09T01:00:06.769Z,8.80
2019-05-09T01:02:35.025Z,8.80
2019-05-09T01:05:04.269Z,8.80
2019-05-09T01:07:33.648Z,8.90
2019-05-09T01:10:04.302Z,8.90
2019-05-09T01:12:33.998Z,8.80
2019-05-09T01:15:03.471Z,8.90
2019-05-09T01:17:33.514Z,8.80
2019-05-09T01:20:03.455Z,8.90
2019-05-09T01:22:33.114Z,9.00
2019-05-09T01:25:03.861Z,9.10
2019-05-09T01:27:33.809Z,9.10
2019-05-09T01:30:04.249Z,9.00
2019-05-09T01:32:36.280Z,9.10
2019-05-09T01:35:05.155Z,9.20
2019-05-09T01:37:34.189Z,9.20
2019-05-09T01:40:04.258Z,9.20
2019-05-09T01:42:33.777Z,9.30
2019-05-09T01:45:03.707Z,9.30
2019-05-09T01:47:34.111Z,9.40
2019-05-09T01:50:03.897Z,9.40
2019-05-09T01:52:33.755Z,9.50
2019-05-09T01:55:03.687Z,9.40
2019-05-09T01:57:33.744Z,9.40
2019-05-09T02:00:04.147Z,9.40
2019-05-09T02:02:33.815Z,9.40
2019-05-09T02:05:04.143Z,9.40
2019-05-09T02:07:33.223Z,9.50
2019-05-09T02:10:03.393Z,9.50
2019-05-09T02:12:33.784Z,9.50
2019-05-09T02:15:21.176Z,9.50
2019-05-09T02:18:04.278Z,9.50
2019-05-09T02:20:29.986Z,9.50
2019-05-09T02:22:58.292Z,9.40
2019-05-09T02:25:26.561Z,9.40
2019-05-09T02:27:55.308Z,9.40
2019-05-09T02:30:25.418Z,9.30
2019-05-09T02:32:54.682Z,9.20
2019-05-09T02:35:23.204Z,9.20
2019-05-09T02:37:51.500Z,9.10
2019-05-09T02:40:19.753Z,9.10
2019-05-09T02:42:48.967Z,9.00
2019-05-09T02:45:19.108Z,9.00
2019-05-09T02:47:49.058Z,9.00
2019-05-09T02:50:19.511Z,9.00
2019-05-09T02:52:48.725Z,8.90
2019-05-09T02:55:18.415Z,8.90
2019-05-09T02:57:49.020Z,8.80
2019-05-09T03:00:22.267Z,8.90
2019-05-09T03:03:10.439Z,8.90
2019-05-09T03:05:38.755Z,8.80
2019-05-09T03:08:08.951Z,8.80
2019-05-09T03:10:38.052Z,8.90
2019-05-09T03:13:09.041Z,8.90
2019-05-09T03:15:39.200Z,8.90
2019-05-09T03:18:08.890Z,8.90
2019-05-09T03:20:39.234Z,8.80
2019-05-09T03:23:09.098Z,8.80
2019-05-09T03:25:40.685Z,8.80
2019-05-09T03:28:24.597Z,8.70
2019-05-09T03:31:00.386Z,8.70
2019-05-09T03:33:30.714Z,8.70
2019-05-09T03:35:58.600Z,8.60
2019-05-09T03:38:28.411Z,8.60
2019-05-09T03:40:58.050Z,8.50
2019-05-09T03:43:27.498Z,8.50
2019-05-09T03:46:13.970Z,8.40
2019-05-09T03:48:43.855Z,8.20
2019-05-09T03:51:12.084Z,8.20
2019-05-09T03:53:40.345Z,8.20
2019-05-09T03:56:10.213Z,8.20
2019-05-09T03:58:38.663Z,8.20
2019-05-09T04:01:10.305Z,8.20
2019-05-09T04:03:37.810Z,8.30
2019-05-09T04:06:08.208Z,8.30
2019-05-09T04:08:37.614Z,8.20
2019-05-09T04:11:08.402Z,7.90
2019-05-09T04:13:38.522Z,7.90
2019-05-09T04:16:07.516Z,8.00
2019-05-09T04:18:37.666Z,8.00
2019-05-09T04:21:08.274Z,8.10
2019-05-09T04:23:37.783Z,8.00
2019-05-09T04:26:07.660Z,8.10
2019-05-09T04:28:39.636Z,8.10
2019-05-09T04:31:07.385Z,8.20
2019-05-09T04:33:35.798Z,8.30
2019-05-09T04:36:05.709Z,8.30
2019-05-09T04:38:34.022Z,8.40
2019-05-09T04:41:02.265Z,8.50
2019-05-09T04:43:35.597Z,8.50
2019-05-09T04:46:03.220Z,8.50
2019-05-09T04:48:32.243Z,8.60
2019-05-09T04:51:01.511Z,8.70
2019-05-09T04:53:30.228Z,8.70
2019-05-09T04:56:00.198Z,8.60
2019-05-09T04:58:28.425Z,8.70
2019-05-09T05:01:10.507Z,8.80
2019-05-09T05:03:39.707Z,8.90
2019-05-09T05:06:07.957Z,9.00
2019-05-09T05:08:37.526Z,9.10
2019-05-09T05:11:07.486Z,9.30
2019-05-09T05:13:38.183Z,9.30
2019-05-09T05:16:08.181Z,9.30
2019-05-09T05:18:37.409Z,9.30
2019-05-09T05:21:07.841Z,9.30
2019-05-09T05:23:38.070Z,9.30
2019-05-09T05:26:06.460Z,9.60
2019-05-09T05:28:34.714Z,9.90
2019-05-09T05:31:02.932Z,10.10
2019-05-09T05:33:51.099Z,10.30
2019-05-09T05:36:19.726Z,10.40
2019-05-09T05:38:48.094Z,10.50
2019-05-09T05:41:18.300Z,10.60
2019-05-09T05:43:47.900Z,10.70
2019-05-09T05:46:28.577Z,10.80
2019-05-09T05:48:57.907Z,10.90
2019-05-09T05:51:27.736Z,10.80
2019-05-09T05:53:57.375Z,10.90
2019-05-09T05:56:27.852Z,10.80
2019-05-09T05:58:58.060Z,11.00
2019-05-09T06:01:27.819Z,11.10
2019-05-09T06:03:55.830Z,11.30
2019-05-09T06:06:24.082Z,11.40
2019-05-09T06:08:52.324Z,11.40
2019-05-09T06:11:20.618Z,11.50
2019-05-09T06:13:56.355Z,11.50
2019-05-09T06:16:22.180Z,11.50
2019-05-09T06:18:48.834Z,11.50
2019-05-09T06:21:17.695Z,11.60
2019-05-09T06:23:48.180Z,11.70
2019-05-09T06:26:18.587Z,11.70
2019-05-09T06:28:48.057Z,11.70
2019-05-09T06:31:17.933Z,11.80
2019-05-09T06:33:52.569Z,11.80
2019-05-09T06:36:18.685Z,11.80
2019-05-09T06:38:48.596Z,11.80
2019-05-09T06:41:17.686Z,11.90
2019-05-09T06:43:49.658Z,11.90
2019-05-09T06:46:22.309Z,12.00
2019-05-09T06:48:50.543Z,12.00
2019-05-09T06:51:21.237Z,12.10
2019-05-09T06:53:48.944Z,12.20
2019-05-09T06:56:17.881Z,12.20
2019-05-09T06:58:48.150Z,12.30
2019-05-09T07:01:20.741Z,12.40
2019-05-09T07:04:02.926Z,12.60
2019-05-09T07:06:38.066Z,12.70
2019-05-09T07:09:14.551Z,12.70
2019-05-09T07:11:42.782Z,12.50
2019-05-09T07:14:32.653Z,12.60
2019-05-09T07:16:59.017Z,12.90
2019-05-09T07:19:27.987Z,13.00
2019-05-09T07:22:18.164Z,13.30
2019-05-09T07:25:00.894Z,13.40
2019-05-09T07:27:28.599Z,13.60
2019-05-09T07:29:58.831Z,13.80
2019-05-09T07:32:41.041Z,14.10
2019-05-09T07:35:10.337Z,14.30
2019-05-09T07:37:38.573Z,14.60
2019-05-09T07:40:09.501Z,14.50
2019-05-09T07:42:39.111Z,14.50
2019-05-09T07:45:08.823Z,14.30
2019-05-09T07:47:38.739Z,14.20
2019-05-09T07:50:08.570Z,14.00
2019-05-09T07:52:38.849Z,13.90
2019-05-09T07:55:08.924Z,13.70
2019-05-09T07:57:44.981Z,13.50
2019-05-09T08:00:07.838Z,13.30
2019-05-09T08:02:38.497Z,13.20
2019-05-09T08:05:08.466Z,13.30
2019-05-09T08:07:38.205Z,13.10
2019-05-09T08:10:10.918Z,13.10
2019-05-09T08:12:38.721Z,12.90
2019-05-09T08:15:13.849Z,12.90
2019-05-09T08:17:38.115Z,12.90
2019-05-09T08:20:08.033Z,13.00
2019-05-09T08:22:40.853Z,13.20
2019-05-09T08:25:08.227Z,13.20
2019-05-09T08:27:37.838Z,13.20
2019-05-09T08:30:07.887Z,13.10
2019-05-09T08:32:37.755Z,12.90
2019-05-09T08:35:08.310Z,12.90
2019-05-09T08:37:38.785Z,13.00
2019-05-09T08:40:07.958Z,13.10
2019-05-09T08:42:37.848Z,13.30
2019-05-09T08:45:08.522Z,13.40
2019-05-09T08:47:38.066Z,13.40
2019-05-09T08:50:20.264Z,13.20
2019-05-09T08:52:48.509Z,13.20
2019-05-09T08:55:17.472Z,13.40
2019-05-09T08:57:47.900Z,13.50
2019-05-09T09:00:18.709Z,13.60
2019-05-09T09:02:48.246Z,13.70
2019-05-09T09:05:18.470Z,13.70
2019-05-09T09:07:48.578Z,13.80
2019-05-09T09:10:18.668Z,13.90
2019-05-09T09:12:47.767Z,13.90
2019-05-09T09:15:17.985Z,13.70
2019-05-09T09:17:48.869Z,13.60
2019-05-09T09:20:18.208Z,13.30
2019-05-09T09:22:48.006Z,13.10
2019-05-09T09:25:18.410Z,13.00
2019-05-09T09:27:50.634Z,12.90
2019-05-09T09:30:24.096Z,12.90
2019-05-09T09:32:47.883Z,12.80
2019-05-09T09:35:18.500Z,12.70
2019-05-09T09:37:51.390Z,12.50
2019-05-09T09:40:17.660Z,12.50
2019-05-09T09:42:48.780Z,12.40
2019-05-09T09:45:18.402Z,12.30
2019-05-09T09:47:48.258Z,12.20
2019-05-09T09:50:17.712Z,12.30
2019-05-09T09:52:48.881Z,12.30
2019-05-09T09:55:18.295Z,12.40
2019-05-09T09:57:48.372Z,12.30
2019-05-09T10:00:23.938Z,12.30
2019-05-09T10:02:52.198Z,12.20
2019-05-09T10:05:20.484Z,12.40
2019-05-09T10:07:48.768Z,12.50
2019-05-09T10:10:31.870Z,12.50
2019-05-09T10:13:03.736Z,12.40
2019-05-09T10:15:49.814Z,12.30
2019-05-09T10:18:19.748Z,12.50
2019-05-09T10:20:58.703Z,12.90
2019-05-09T10:23:27.017Z,13.30
2019-05-09T10:25:55.253Z,13.70
2019-05-09T10:28:25.245Z,13.80
2019-05-09T10:30:53.482Z,13.80
2019-05-09T10:33:21.733Z,13.90
2019-05-09T10:35:50.154Z,14.20
2019-05-09T10:38:18.674Z,14.20
2019-05-09T10:40:48.545Z,14.10
2019-05-09T10:43:34.038Z,14.50
2019-05-09T10:46:08.344Z,14.80
2019-05-09T10:48:38.612Z,14.80
2019-05-09T10:51:10.511Z,15.00
2019-05-09T10:53:36.433Z,15.20
2019-05-09T10:56:04.685Z,15.40
2019-05-09T10:58:32.928Z,15.40
2019-05-09T11:01:01.207Z,15.60
2019-05-09T11:03:29.915Z,15.90
2019-05-09T11:05:58.175Z,16.10
2019-05-09T11:08:28.565Z,16.30
2019-05-09T11:10:58.056Z,16.20
2019-05-09T11:13:28.703Z,16.40
2019-05-09T11:15:58.255Z,16.50
2019-05-09T11:18:28.486Z,16.00
2019-05-09T11:20:58.101Z,15.70
2019-05-09T11:23:29.003Z,15.40
2019-05-09T11:25:58.051Z,15.60
2019-05-09T11:28:28.559Z,15.60
2019-05-09T11:30:58.383Z,15.70
2019-05-09T11:33:27.824Z,15.60
2019-05-09T11:35:58.119Z,15.60
2019-05-09T11:38:33.336Z,15.50
2019-05-09T11:40:57.897Z,15.50
2019-05-09T11:43:26.433Z,15.30
2019-05-09T11:45:54.749Z,15.10
2019-05-09T11:48:23.002Z,15.00
2019-05-09T11:50:51.254Z,14.90
2019-05-09T11:53:19.496Z,14.90
2019-05-09T11:55:48.297Z,14.90
2019-05-09T11:58:18.135Z,14.90
2019-05-09T12:00:48.268Z,14.90
2019-05-09T12:03:18.736Z,14.90
2019-05-09T12:05:47.612Z,14.80
2019-05-09T12:08:17.721Z,14.70
2019-05-09T12:10:46.150Z,14.60
2019-05-09T12:13:14.419Z,14.50
2019-05-09T12:15:42.681Z,14.40
2019-05-09T12:18:11.745Z,14.30
2019-05-09T12:20:40.107Z,14.30
2019-05-09T12:23:08.373Z,14.20
2019-05-09T12:25:38.644Z,14.00
2019-05-09T12:28:07.847Z,14.00
2019-05-09T12:30:37.996Z,13.90
2019-05-09T12:33:08.552Z,13.80
2019-05-09T12:35:38.514Z,13.80
2019-05-09T12:38:08.388Z,13.70
2019-05-09T12:40:38.720Z,13.60
2019-05-09T12:43:08.912Z,13.70
2019-05-09T12:45:38.279Z,13.70
2019-05-09T12:48:14.121Z,13.70
2019-05-09T12:50:38.571Z,13.70
2019-05-09T12:53:06.325Z,13.60
2019-05-09T12:55:34.575Z,13.60
2019-05-09T12:58:02.996Z,13.60
2019-05-09T13:00:31.432Z,13.60
2019-05-09T13:02:59.687Z,13.60
2019-05-09T13:05:27.938Z,13.70
2019-05-09T13:07:57.773Z,13.70
2019-05-09T13:10:28.233Z,13.70
2019-05-09T13:12:56.234Z,13.70
2019-05-09T13:15:30.556Z,13.60
2019-05-09T13:17:57.968Z,13.70
2019-05-09T13:20:28.426Z,13.70
2019-05-09T13:22:58.687Z,13.70
2019-05-09T13:25:26.001Z,13.80
2019-05-09T13:27:55.090Z,13.90
2019-05-09T13:30:23.517Z,13.90
2019-05-09T13:32:51.764Z,13.90
2019-05-09T13:35:20.235Z,14.00
2019-05-09T13:37:49.240Z,14.00
2019-05-09T13:40:18.813Z,14.00
2019-05-09T13:42:49.060Z,14.10
2019-05-09T13:45:18.631Z,14.10
2019-05-09T13:47:48.505Z,14.00
2019-05-09T13:50:18.625Z,14.10
2019-05-09T13:52:48.034Z,14.10
2019-05-09T13:55:17.861Z,14.10
2019-05-09T13:57:48.650Z,14.20
2019-05-09T14:00:18.508Z,14.20
2019-05-09T14:02:48.523Z,14.20
2019-05-09T14:05:18.972Z,14.20
2019-05-09T14:07:48.592Z,14.20
2019-05-09T14:10:17.828Z,14.20
2019-05-09T14:13:01.988Z,14.20
2019-05-09T14:15:18.458Z,14.20
2019-05-09T14:17:53.099Z,14.10
2019-05-09T14:20:18.072Z,14.00
2019-05-09T14:22:48.852Z,14.00
2019-05-09T14:25:19.208Z,14.00
2019-05-09T14:27:49.752Z,13.90
2019-05-09T14:30:16.233Z,13.90
2019-05-09T14:32:44.461Z,14.00
2019-05-09T14:35:12.725Z,14.00
2019-05-09T14:37:40.962Z,14.00
2019-05-09T14:40:10.394Z,14.00
2019-05-09T14:42:40.466Z,14.10
2019-05-09T14:45:08.962Z,14.20
2019-05-09T14:47:41.877Z,14.20
2019-05-09T14:50:07.193Z,14.20
2019-05-09T14:52:38.192Z,14.20
2019-05-09T14:55:08.207Z,14.20
2019-05-09T14:57:38.174Z,14.10
2019-05-09T15:00:09.034Z,14.10
2019-05-09T15:02:38.867Z,14.10
2019-05-09T15:05:09.425Z,14.10
2019-05-09T15:07:38.872Z,14.10
2019-05-09T15:10:08.583Z,14.10
2019-05-09T15:12:39.132Z,14.20
2019-05-09T15:15:07.650Z,14.20
2019-05-09T15:17:36.810Z,14.30
2019-05-09T15:20:08.517Z,14.30
2019-05-09T15:22:38.379Z,14.30
2019-05-09T15:25:08.563Z,14.30
2019-05-09T15:27:38.430Z,14.20
2019-05-09T15:30:08.498Z,14.20
2019-05-09T15:32:37.775Z,14.10
2019-05-09T15:35:08.706Z,14.10
2019-05-09T15:37:38.596Z,14.00
2019-05-09T15:40:08.460Z,13.90
2019-05-09T15:42:38.670Z,13.80
2019-05-09T15:45:07.840Z,13.80
2019-05-09T15:47:37.880Z,13.70
2019-05-09T15:50:16.488Z,13.60
2019-05-09T15:52:38.221Z,13.60
2019-05-09T15:55:09.599Z,13.60
2019-05-09T15:57:37.832Z,13.60
2019-05-09T16:00:08.370Z,13.50
2019-05-09T16:02:39.106Z,13.50
2019-05-09T16:05:10.477Z,13.50
2019-05-09T16:07:37.537Z,13.50
2019-05-09T16:10:08.511Z,13.50
2019-05-09T16:12:38.364Z,13.50
2019-05-09T16:15:07.791Z,13.60
2019-05-09T16:17:39.030Z,13.60
2019-05-09T16:20:08.473Z,13.60
2019-05-09T16:22:39.142Z,13.60
2019-05-09T16:25:07.889Z,13.70
2019-05-09T16:27:37.886Z,13.60
2019-05-09T16:30:08.417Z,13.60
2019-05-09T16:32:37.709Z,13.60
2019-05-09T16:35:08.031Z,13.60
2019-05-09T16:37:56.772Z,13.50
2019-05-09T16:40:08.418Z,13.50
2019-05-09T16:42:38.138Z,13.50
2019-05-09T16:45:08.106Z,13.50
2019-05-09T16:47:36.539Z,13.50
2019-05-09T16:50:11.641Z,13.50
2019-05-09T16:52:42.998Z,13.40
2019-05-09T16:55:10.040Z,13.40
2019-05-09T16:57:38.279Z,13.40
2019-05-09T17:00:09.104Z,13.30
2019-05-09T17:02:38.781Z,13.40
2019-05-09T17:05:08.385Z,13.50
2019-05-09T17:07:38.420Z,13.40
2019-05-09T17:10:08.636Z,13.40
2019-05-09T17:12:36.934Z,13.40
2019-05-09T17:15:08.500Z,13.40
2019-05-09T17:17:38.529Z,13.40
2019-05-09T17:20:08.644Z,13.40
2019-05-09T17:23:10.002Z,13.40
2019-05-09T17:25:24.923Z,13.40
2019-05-09T17:27:55.900Z,13.40
2019-05-09T17:30:23.138Z,13.40
2019-05-09T17:32:51.411Z,13.30
2019-05-09T17:35:19.638Z,13.30
2019-05-09T17:37:48.132Z,13.30
2019-05-09T17:40:19.138Z,13.20
2019-05-09T17:42:46.429Z,13.20
2019-05-09T17:45:14.691Z,13.10
2019-05-09T17:47:43.009Z,13.20
2019-05-09T17:50:11.270Z,13.20
2019-05-09T17:52:39.556Z,13.30
2019-05-09T17:55:07.821Z,13.30
2019-05-09T17:57:38.613Z,13.30
2019-05-09T18:00:08.256Z,13.20
2019-05-09T18:02:38.434Z,13.20
2019-05-09T18:05:07.800Z,13.20
2019-05-09T18:07:37.692Z,13.20
2019-05-09T18:10:07.715Z,13.20
2019-05-09T18:12:38.411Z,13.20
2019-05-09T18:15:07.706Z,13.20
2019-05-09T18:17:38.144Z,13.20
2019-05-09T18:20:08.044Z,13.20
2019-05-09T18:22:36.122Z,13.10
2019-05-09T18:25:04.958Z,13.10
2019-05-09T18:27:33.217Z,13.10
2019-05-09T18:30:01.506Z,13.10
2019-05-09T18:32:38.294Z,13.10
2019-05-09T18:35:14.907Z,13.00
2019-05-09T18:37:43.194Z,13.00
2019-05-09T18:40:11.523Z,13.00
2019-05-09T18:42:39.774Z,13.00
2019-05-09T18:45:09.317Z,13.00
2019-05-09T18:47:37.648Z,13.00
2019-05-09T18:50:07.222Z,13.00
2019-05-09T18:52:35.539Z,12.90
2019-05-09T18:55:10.442Z,12.90
2019-05-09T18:57:38.719Z,12.90
2019-05-09T19:00:08.261Z,12.90
2019-05-09T19:02:36.525Z,12.90
2019-05-09T19:05:06.521Z,12.90
2019-05-09T19:07:34.750Z,13.00
2019-05-09T19:10:03.916Z,12.90
2019-05-09T19:12:32.162Z,12.90
2019-05-09T19:15:01.221Z,12.90
2019-05-09T19:17:39.985Z,12.90
2019-05-09T19:20:09.952Z,12.80
2019-05-09T19:22:38.186Z,12.80
2019-05-09T19:25:06.680Z,12.80
2019-05-09T19:27:34.939Z,12.80
2019-05-09T19:30:04.508Z,12.80
2019-05-09T19:32:32.827Z,12.80
2019-05-09T19:35:01.133Z,12.80
2019-05-09T19:37:29.417Z,12.80
2019-05-09T19:39:57.663Z,12.80
2019-05-09T19:42:25.972Z,12.80
2019-05-09T19:44:54.214Z,12.70
2019-05-09T19:47:22.464Z,12.70
2019-05-09T19:49:50.732Z,12.70
2019-05-09T19:52:19.001Z,12.60
2019-05-09T19:54:47.259Z,12.60
2019-05-09T19:57:15.629Z,12.60
2019-05-09T19:59:44.295Z,12.60
2019-05-09T20:02:12.695Z,12.60
2019-05-09T20:04:40.984Z,12.50
2019-05-09T20:07:09.246Z,12.50
2019-05-09T20:09:42.130Z,12.40
2019-05-09T20:12:21.157Z,12.40
2019-05-09T20:14:51.190Z,12.30
2019-05-09T20:17:19.550Z,12.30
2019-05-09T20:19:47.977Z,12.30
2019-05-09T20:22:16.264Z,12.30
2019-05-09T20:24:45.591Z,12.30
2019-05-09T20:27:13.983Z,12.30
2019-05-09T20:29:42.267Z,12.40
2019-05-09T20:32:10.596Z,12.30
2019-05-09T20:34:38.897Z,12.30
2019-05-09T20:37:07.181Z,12.30
2019-05-09T20:39:35.730Z,12.40
2019-05-09T20:42:04.365Z,12.30
2019-05-09T20:44:32.907Z,12.30
2019-05-09T20:47:01.583Z,12.30
2019-05-09T20:49:30.024Z,12.30
2019-05-09T20:51:58.483Z,12.30
2019-05-09T20:54:27.343Z,12.30
2019-05-09T20:56:55.780Z,12.30
2019-05-09T20:59:24.249Z,12.30
2019-05-09T21:01:52.692Z,12.30
2019-05-09T21:04:21.210Z,12.30
2019-05-09T21:06:49.672Z,12.30
2019-05-09T21:09:18.221Z,12.30
2019-05-09T21:11:46.730Z,12.20
2019-05-09T21:14:15.228Z,12.20
2019-05-09T21:16:43.723Z,12.20
2019-05-09T21:19:12.181Z,12.20
2019-05-09T21:21:43.614Z,12.20
2019-05-09T21:24:12.197Z,12.20
2019-05-09T21:26:40.711Z,12.10
2019-05-09T21:29:09.170Z,12.20
2019-05-09T21:31:37.769Z,12.20
2019-05-09T21:34:06.377Z,12.20
2019-05-09T21:36:34.746Z,12.30
2019-05-09T21:39:04.706Z,12.30
2019-05-09T21:41:32.979Z,12.30
2019-05-09T21:44:01.256Z,12.20
2019-05-09T21:46:29.633Z,12.30
2019-05-09T21:49:02.357Z,12.20
2019-05-09T21:51:30.614Z,12.20
2019-05-09T21:53:58.975Z,12.30
2019-05-09T21:56:27.238Z,12.30
2019-05-09T21:58:55.521Z,12.30
2019-05-09T22:01:23.900Z,12.30
2019-05-09T22:03:52.151Z,12.30
2019-05-09T22:06:20.398Z,12.30
2019-05-09T22:08:48.645Z,12.20
2019-05-09T22:11:16.962Z,12.20
2019-05-09T22:13:45.247Z,12.20
2019-05-09T22:16:13.521Z,12.20
2019-05-09T22:18:41.773Z,12.20
2019-05-09T22:21:11.646Z,12.20
2019-05-09T22:23:55.196Z,12.20
2019-05-09T22:26:09.898Z,12.20
2019-05-09T22:28:38.357Z,12.20
2019-05-09T22:31:06.617Z,12.20
2019-05-09T22:33:34.888Z,12.20
2019-05-09T22:36:03.129Z,12.20
2019-05-09T22:38:31.569Z,12.30
2019-05-09T22:40:59.846Z,12.30
2019-05-09T22:43:28.114Z,12.20
2019-05-09T22:45:56.438Z,12.20
2019-05-09T22:48:24.713Z,12.20
2019-05-09T22:50:53.017Z,12.20
2019-05-09T22:53:21.261Z,12.20
2019-05-09T22:55:49.507Z,12.10
2019-05-09T22:58:17.857Z,12.10
2019-05-09T23:00:46.088Z,12.10
2019-05-09T23:03:14.426Z,12.10
2019-05-09T23:05:42.730Z,12.00
2019-05-09T23:08:11.007Z,12.00
2019-05-09T23:10:39.239Z,12.00
2019-05-09T23:13:07.485Z,12.10
2019-05-09T23:15:35.786Z,12.10
2019-05-09T23:18:04.061Z,12.10
2019-05-09T23:20:43.173Z,12.00
2019-05-09T23:23:22.257Z,12.00
2019-05-09T23:25:50.741Z,12.00
2019-05-09T23:28:19.003Z,12.10
2019-05-09T23:30:48.225Z,12.10
2019-05-09T23:33:16.465Z,12.10
2019-05-09T23:35:44.745Z,12.10
2019-05-09T23:38:13.081Z,12.10
2019-05-09T23:40:41.312Z,12.10
2019-05-09T23:43:09.574Z,12.00
2019-05-09T23:45:37.849Z,12.00
2019-05-09T23:48:06.086Z,12.00
2019-05-09T23:50:34.386Z,11.90
2019-05-09T23:53:02.634Z,11.90
2019-05-09T23:55:48.653Z,11.80
2019-05-09T23:58:34.639Z,11.90
